x

Long Island - 30 Nm South Of Islip, Ny (44025) Wave Buoy

8:50pm - Sat 1st Aug 2015 All times are EDT. -4 hours from GMT.

  • Sig Wave height 4.3ft
  • Swell Direction
  • Peak Period 9s
  • Average Period 5s
  • Wind
    13mph, 16mph gusts
  • Sea Temp 76°f
  • Air Temp 77°f
  • Sea Pressure 1009.2mb
  • Long Island - 30 Nm South Of Islip, Ny
  • Long Island - 30 Nm South Of Islip, Ny

More Historic Weather Station data

Upgrade to MSW Pro to gain access to the past 30 days of data for over 8000 Wavebouys and Weather Stations around the globe.

Join Pro

Comparision Forecast

View Surf forecast
   
Sat 08/01 8:50pm 4.5ft 9s 5s 13 16 mph 1009.2mb 76f 77f
7:50pm 4.5ft 9s 6s 16 18 mph 1008.5mb 76f 78f
6:50pm 4.5ft 9s 6s 13 18 mph 1008.1mb 76f 78f
5:50pm 4.5ft 9s 6s 13 16 mph 1008.1mb 76f 78f
4:50pm 4.5ft 10s 6s 13 16 mph 1008.3mb 76f 78f
3:50pm 4ft 8s 6s 13 16 mph 1008.5mb 76f 78f
2:50pm 4.5ft 9s 6s 13 16 mph 1008.9mb 76f 78f
1:50pm 4.5ft 10s 6s 11 13 mph 1009.3mb 76f 78f
12:50pm 4.5ft 10s 6s 11 13 mph 1009.6mb 76f 77f
11:50am 4.5ft 9s 6s 13
mph
1009.6mb 76f 76f
10:50am 4.5ft 10s 6s 13 16 mph 1009.4mb 76f 76f
9:50am 4.5ft 11s 6s 11 13 mph 1009.2mb 75f 76f
8:50am 4.5ft 10s 6s 11 13 mph 1009.2mb 75f 76f
7:50am 4ft 10s 6s 16 18 mph 1009mb 75f 76f
6:50am 4ft 8s 6s 13 16 mph 1008.8mb 75f 77f
5:50am 3.5ft 10s 6s 13 16 mph 1008.6mb 75f 77f
4:50am 4ft 11s 6s 13
mph
1008.8mb 75f 77f
3:50am 3.5ft 9s 6s 11
mph
1009.2mb 75f 77f
2:50am 3.5ft 7s 6s 9
mph
1009.3mb 75f 77f
1:50am 3.5ft 9s 6s 9 11 mph 1009.6mb 75f 76f
12:50am 3.5ft 7s 6s 9 11 mph 1010.1mb 75f 77f
Fri 07/31 11:50pm 3.5ft 8s 5s 11 13 mph 1010.2mb 76f 77f
10:50pm 3.5ft 7s 6s 11 13 mph 1010.1mb 76f 77f
9:50pm 3.5ft 7s 6s 11 13 mph 1009.8mb 76f 78f
8:50pm 4ft 7s 6s 11 13 mph 1009.1mb 77f 78f
7:50pm 3.5ft 8s 6s 11 13 mph 1008.7mb 77f 78f
6:50pm 3.5ft 7s 6s 11 13 mph 1008.5mb 77f 78f
5:50pm 3.5ft 7s 6s 9 11 mph 1009mb 77f 78f
4:50pm 3.5ft 7s 6s 11 13 mph 1009.3mb 77f 78f
3:50pm 3.5ft 7s 6s 9 11 mph 1009.7mb 77f 77f
2:50pm 3.5ft 6s 6s 9
mph
1010.4mb 77f 77f
1:50pm 3ft 7s 6s 9 11 mph 1010.9mb 76f 76f
12:50pm 3ft 6s 5s 9 11 mph 1011.1mb 76f 76f
11:50am 2.5ft 6s 5s 9
mph
1011.5mb 75f 75f
10:50am 2.5ft 6s 5s 9 11 mph 1011.5mb 75f 75f
9:50am 2.5ft 6s 5s 11 13 mph 1011.3mb 75f 75f
8:50am 3ft 5s 5s 11 13 mph 1011mb 74f 75f
7:50am 3ft 5s 5s 13 16 mph 1010.7mb 74f 76f
6:50am 3ft 5s 5s 13 16 mph 1010.4mb 74f 76f
5:50am 3.5ft 6s 5s 11 13 mph 1010.1mb 74f 75f
4:50am 3ft 5s 5s 9 11 mph 1009.9mb 74f 74f
3:50am 3ft 6s 5s 11 13 mph 1009.5mb 74f 75f
2:50am 3.5ft 6s 5s 9 11 mph 1009.3mb 74f 75f
1:50am 3.5ft 5s 5s 11 13 mph 1009.7mb 74f 76f
12:50am 3.5ft 6s 5s 13 16 mph 1010mb 75f 76f
Thu 07/30 11:50pm 3.5ft 6s 5s 11
mph
1010mb 75f 77f
10:50pm 4.5ft 6s 5s 13 16 mph 1010.1mb 75f 77f
9:50pm 4.5ft 6s 5s 9 13 mph 1010.3mb 75f 76f
8:50pm 4.5ft 6s 5s 11 13 mph 1010.1mb 75f 76f
7:50pm 5ft 6s 5s 16 18 mph 1010.3mb 75f 76f
6:50pm 5ft 6s 5s 18 22 mph 1009.6mb 76f 77f
5:50pm 5ft 6s 5s 20 25 mph 1009.2mb 76f 77f
4:50pm 4.5ft 6s 5s 20 25 mph 1009.2mb 76f 77f
3:50pm 4.5ft 5s 5s 20 25 mph 1010mb 76f 77f
2:50pm 4.5ft 6s 5s 20 22 mph 1010.8mb 76f 77f
1:50pm 4ft 5s 5s 18 22 mph 1011.6mb 76f 77f
12:50pm 4ft 5s 5s 18 20 mph 1012.4mb 76f 77f
11:50am 4ft 5s 5s 18 20 mph 1012.6mb 75f 76f
10:50am 4ft 5s 5s 16 20 mph 1012.7mb 74f 76f
9:50am 3.5ft 5s 5s 16
mph
1012.9mb 74f 76f
8:50am 3.5ft 5s 5s 13 16 mph 1013.3mb 74f 76f
7:50am 3.5ft 5s 5s 13 16 mph 1013.2mb 74f 76f
6:50am 3.5ft 5s 5s 16
mph
1013.2mb 74f 76f
5:50am 3.5ft 5s 5s 16 18 mph 1013.1mb 74f 76f
4:50am 3.5ft 9s 5s 13 16 mph 1013.2mb 74f 76f
3:50am 3.5ft 9s 5s 16 18 mph 1013.4mb 74f 76f
2:50am 3.5ft 9s 5s 16 18 mph 1013.8mb 74f 76f
1:50am 3.5ft 5s 5s 13 16 mph 1013.8mb 74f 76f
12:50am 3.5ft 5s 5s 16 18 mph 1013.8mb 74f 76f
Wed 07/29 11:50pm 3.5ft 5s 5s 16 18 mph 1013.7mb 74f 76f
10:50pm 3.5ft 4s 4s 13 16 mph 1013.9mb 74f 76f
9:50pm 3.5ft 4s 4s 16 18 mph 1013.8mb 74f 77f
8:50pm 3ft 4s 4s 16 18 mph 1013.2mb 74f 77f
7:50pm 2.5ft 11s 4s 16 18 mph 1013.2mb 74f 77f
6:50pm 2.5ft 10s 4s 16 18 mph 1012.9mb 75f 78f
5:50pm 2.5ft 10s 4s 13 16 mph 1013.4mb 75f 78f
4:50pm 2.5ft 7s 5s 11 13 mph 1013.8mb 75f 78f
3:50pm 2ft 8s 5s 11 13 mph 1014.1mb 75f 78f
2:50pm 2.5ft 7s 5s 9 11 mph 1014.6mb 75f 77f
1:50pm 2ft 7s 6s 11 13 mph 1014.9mb 75f 77f
12:50pm 2ft 7s 6s 9
mph
1015.2mb 75f 77f
11:50am 2ft 8s 6s 4 7 mph 1015.3mb 75f 76f
10:50am 2ft 7s 6s 4
mph
1015.8mb 75f 76f
9:50am 2ft 7s 6s 2 4 mph 1015.4mb 74f 76f
8:50am 1.6ft 9s 6s 2 4 mph 1015.2mb 74f 75f
7:50am 2ft 10s 5s 4
mph
1014.8mb 74f 75f
6:50am 2ft 7s 5s 4 7 mph 1014.5mb 74f 75f
5:50am 2ft 9s 5s 7
mph
1014.3mb 74f 75f
4:50am 2.5ft 8s 5s 7
mph
1013.9mb 74f 76f
3:50am 2.5ft 8s 5s 9 11 mph 1014mb 74f 76f
2:50am 2.5ft 8s 5s 9 11 mph 1014.2mb 74f 76f